createdAt,value
2023-12-22T00:00:01.963Z,97678.00
2023-12-22T00:02:33.298Z,97676.16
2023-12-22T00:05:00.456Z,97674.84
2023-12-22T00:07:27.784Z,97670.94
2023-12-22T00:09:54.846Z,97674.47
2023-12-22T00:12:21.800Z,97673.81
2023-12-22T00:14:48.767Z,97664.75
2023-12-22T00:17:15.815Z,97670.88
2023-12-22T00:19:43.033Z,97666.69
2023-12-22T00:22:10.156Z,97661.50
2023-12-22T00:24:37.209Z,97670.88
2023-12-22T00:27:04.440Z,97665.19
2023-12-22T00:29:31.530Z,97672.13
2023-12-22T00:31:58.590Z,97661.97
2023-12-22T00:34:25.568Z,97656.00
2023-12-22T00:36:52.761Z,97649.19
2023-12-22T00:39:19.765Z,97654.66
2023-12-22T00:41:46.744Z,97653.03
2023-12-22T00:44:13.861Z,97653.31
2023-12-22T00:46:40.865Z,97648.50
2023-12-22T00:49:08.791Z,97642.28
2023-12-22T00:51:35.901Z,97639.34
2023-12-22T00:54:02.858Z,97650.78
2023-12-22T00:56:29.868Z,97650.25
2023-12-22T00:59:02.229Z,97642.81
2023-12-22T01:01:35.866Z,97640.81
2023-12-22T01:04:02.893Z,97638.69
2023-12-22T01:06:32.328Z,97642.34
2023-12-22T01:08:59.674Z,97640.06
2023-12-22T01:11:26.730Z,97644.94
2023-12-22T01:13:53.888Z,97651.06
2023-12-22T01:16:23.627Z,97648.50
2023-12-22T01:18:52.042Z,97647.38
2023-12-22T01:21:19.546Z,97639.47
2023-12-22T01:23:46.814Z,97642.47
2023-12-22T01:26:13.790Z,97639.94
2023-12-22T01:28:40.816Z,97631.97
2023-12-22T01:31:07.890Z,97633.16
2023-12-22T01:33:35.061Z,97634.16
2023-12-22T01:36:02.136Z,97637.78
2023-12-22T01:38:29.131Z,97628.28
2023-12-22T01:40:56.158Z,97626.38
2023-12-22T01:43:23.604Z,97629.78
2023-12-22T01:45:57.633Z,97630.28
2023-12-22T01:48:26.222Z,97624.16
2023-12-22T01:50:54.244Z,97620.44
2023-12-22T01:53:22.040Z,97612.84
2023-12-22T01:55:51.735Z,97620.97
2023-12-22T01:58:21.158Z,97618.00
2023-12-22T02:00:48.410Z,97625.25
2023-12-22T02:03:16.034Z,97620.09
2023-12-22T02:05:54.034Z,97615.09
2023-12-22T02:08:24.035Z,97607.03
2023-12-22T02:10:51.144Z,97611.41
2023-12-22T02:13:18.605Z,97619.66
2023-12-22T02:15:50.613Z,97610.63
2023-12-22T02:18:27.950Z,97602.44
2023-12-22T02:20:55.127Z,97598.91
2023-12-22T02:23:22.369Z,97599.94
2023-12-22T02:25:53.911Z,97591.06
2023-12-22T02:28:24.536Z,97587.19
2023-12-22T02:31:01.917Z,97590.94
2023-12-22T02:33:30.918Z,97581.72
2023-12-22T02:36:04.867Z,97587.06
2023-12-22T02:38:34.705Z,97594.38
2023-12-22T02:41:02.042Z,97594.38
2023-12-22T02:43:30.403Z,97584.03
2023-12-22T02:45:57.439Z,97590.03
2023-12-22T02:48:24.579Z,97580.31
2023-12-22T02:50:51.683Z,97574.97
2023-12-22T02:53:18.694Z,97577.19
2023-12-22T02:55:45.835Z,97565.91
2023-12-22T02:58:12.811Z,97563.31
2023-12-22T03:00:40.013Z,97563.81
2023-12-22T03:03:07.050Z,97558.81
2023-12-22T03:05:34.440Z,97562.38
2023-12-22T03:08:01.631Z,97563.47
2023-12-22T03:10:31.201Z,97556.03
2023-12-22T03:12:58.259Z,97560.91
2023-12-22T03:15:25.246Z,97561.84
2023-12-22T03:17:52.568Z,97567.69
2023-12-22T03:20:19.857Z,97568.97
2023-12-22T03:22:46.934Z,97559.41
2023-12-22T03:25:14.045Z,97573.66
2023-12-22T03:27:41.123Z,97568.81
2023-12-22T03:30:08.705Z,97571.06
2023-12-22T03:32:35.772Z,97545.81
2023-12-22T03:35:02.936Z,97568.47
2023-12-22T03:37:32.993Z,97568.97
2023-12-22T03:40:00.154Z,97565.41
2023-12-22T03:42:27.205Z,97566.38
2023-12-22T03:44:54.185Z,97551.19
2023-12-22T03:47:21.127Z,97554.78
2023-12-22T03:49:48.202Z,97554.94
2023-12-22T03:52:15.998Z,97557.50
2023-12-22T03:54:43.051Z,97549.09
2023-12-22T03:57:10.077Z,97540.84
2023-12-22T03:59:37.067Z,97547.78
2023-12-22T04:02:04.474Z,97535.03
2023-12-22T04:04:31.889Z,97530.97
2023-12-22T04:06:59.053Z,97534.53
2023-12-22T04:09:25.965Z,97536.97
2023-12-22T04:11:52.987Z,97526.94
2023-12-22T04:14:20.104Z,97526.78
2023-12-22T04:16:47.524Z,97525.81
2023-12-22T04:19:14.791Z,97519.84
2023-12-22T04:21:41.781Z,97524.22
2023-12-22T04:24:08.918Z,97528.91
2023-12-22T04:26:35.861Z,97520.00
2023-12-22T04:29:03.224Z,97514.81
2023-12-22T04:31:30.333Z,97516.47
2023-12-22T04:33:57.371Z,97511.13
2023-12-22T04:36:24.693Z,97508.72
2023-12-22T04:38:51.713Z,97501.91
2023-12-22T04:41:18.736Z,97503.53
2023-12-22T04:43:45.802Z,97500.97
2023-12-22T04:46:12.967Z,97494.16
2023-12-22T04:48:40.206Z,97488.34
2023-12-22T04:51:07.186Z,97492.53
2023-12-22T04:53:34.533Z,97489.16
2023-12-22T04:56:01.812Z,97486.72
2023-12-22T04:58:28.979Z,97483.50
2023-12-22T05:00:56.332Z,97485.41
2023-12-22T05:03:23.573Z,97469.25
2023-12-22T05:05:50.552Z,97482.50
2023-12-22T05:08:17.692Z,97491.09
2023-12-22T05:10:44.848Z,97488.66
2023-12-22T05:13:12.037Z,97483.50
2023-12-22T05:15:39.142Z,97491.25
2023-12-22T05:18:06.335Z,97494.47
2023-12-22T05:20:33.749Z,97488.97
2023-12-22T05:23:00.869Z,97484.75
2023-12-22T05:25:28.171Z,97487.34
2023-12-22T05:27:55.179Z,97490.88
2023-12-22T05:30:22.549Z,97481.53
2023-12-22T05:32:49.634Z,97487.34
2023-12-22T05:35:16.692Z,97486.53
2023-12-22T05:37:43.882Z,97485.72
2023-12-22T05:40:11.268Z,97477.63
2023-12-22T05:42:38.617Z,97485.72
2023-12-22T05:45:07.690Z,97502.53
2023-12-22T05:47:34.923Z,97502.22
2023-12-22T05:50:02.460Z,97500.91
2023-12-22T05:52:31.357Z,97508.00
2023-12-22T05:54:58.355Z,97508.00
2023-12-22T05:57:28.635Z,97490.38
2023-12-22T05:59:59.814Z,97486.66
2023-12-22T06:02:27.166Z,97494.72
2023-12-22T06:04:54.515Z,97509.22
2023-12-22T06:07:21.843Z,97499.00
2023-12-22T06:09:51.024Z,97511.13
2023-12-22T06:12:18.234Z,97509.63
2023-12-22T06:14:53.603Z,97504.47
2023-12-22T06:17:20.737Z,97507.25
2023-12-22T06:19:49.058Z,97507.38
2023-12-22T06:22:16.064Z,97515.97
2023-12-22T06:24:43.020Z,97518.19
2023-12-22T06:27:09.989Z,97514.59
2023-12-22T06:29:46.713Z,97510.25
2023-12-22T06:32:16.630Z,97514.66
2023-12-22T06:34:44.991Z,97515.28
2023-12-22T06:37:13.037Z,97517.38
2023-12-22T06:39:40.187Z,97513.69
2023-12-22T06:42:12.116Z,97517.25
2023-12-22T06:44:42.476Z,97521.16
2023-12-22T06:47:09.526Z,97528.00
2023-12-22T06:49:36.704Z,97516.06
2023-12-22T06:52:04.072Z,97518.97
2023-12-22T06:54:31.328Z,97517.06
2023-12-22T06:56:58.558Z,97521.56
2023-12-22T06:59:26.440Z,97523.50
2023-12-22T07:02:02.797Z,97515.78
2023-12-22T07:04:37.583Z,97521.47
2023-12-22T07:07:04.669Z,97522.91
2023-12-22T07:09:32.094Z,97524.22
2023-12-22T07:11:59.835Z,97522.28
2023-12-22T07:14:26.968Z,97514.06
2023-12-22T07:16:54.177Z,97523.59
2023-12-22T07:19:21.298Z,97512.66
2023-12-22T07:21:48.369Z,97508.13
2023-12-22T07:24:16.450Z,97511.66
2023-12-22T07:26:45.882Z,97512.50
2023-12-22T07:29:13.863Z,97515.72
2023-12-22T07:31:41.252Z,97516.19
2023-12-22T07:34:09.596Z,97523.00
2023-12-22T07:36:43.544Z,97511.69
2023-12-22T07:39:17.178Z,97497.47
2023-12-22T07:41:45.190Z,97495.34
2023-12-22T07:44:12.403Z,97498.59
2023-12-22T07:46:39.741Z,97495.53
2023-12-22T07:49:07.377Z,97501.00
2023-12-22T07:51:34.906Z,97500.84
2023-12-22T07:54:02.249Z,97497.78
2023-12-22T07:56:29.339Z,97502.16
2023-12-22T07:59:05.154Z,97497.78
2023-12-22T08:01:44.659Z,97489.09
2023-12-22T08:04:12.135Z,97487.19
2023-12-22T08:06:39.419Z,97488.16
2023-12-22T08:09:07.253Z,97481.38
2023-12-22T08:11:34.327Z,97475.06
2023-12-22T08:14:01.348Z,97474.88
2023-12-22T08:16:28.540Z,97475.88
2023-12-22T08:18:55.574Z,97465.84
2023-12-22T08:21:29.380Z,97468.09
2023-12-22T08:24:06.016Z,97462.28
2023-12-22T08:26:33.179Z,97457.09
2023-12-22T08:29:00.325Z,97443.50
2023-12-22T08:31:27.586Z,97442.84
2023-12-22T08:33:54.629Z,97440.88
2023-12-22T08:36:21.660Z,97441.84
2023-12-22T08:38:49.050Z,97437.97
2023-12-22T08:41:16.758Z,97432.13
2023-12-22T08:43:44.048Z,97441.19
2023-12-22T08:46:11.152Z,97443.88
2023-12-22T08:48:39.847Z,97435.56
2023-12-22T09:01:54.115Z,97440.47
2023-12-22T09:04:24.085Z,97441.25
2023-12-22T09:06:51.992Z,97440.91
2023-12-22T09:09:19.755Z,97436.91
2023-12-22T09:11:48.135Z,97448.41
2023-12-22T09:14:17.683Z,97446.81
2023-12-22T09:16:46.936Z,97449.47
2023-12-22T09:19:14.116Z,97452.66
2023-12-22T09:21:41.169Z,97437.78
2023-12-22T09:24:08.106Z,97435.72
2023-12-22T09:26:35.216Z,97441.34
2023-12-22T09:29:02.235Z,97435.53
2023-12-22T09:31:29.265Z,97435.69
2023-12-22T09:33:56.472Z,97428.09
2023-12-22T09:36:23.516Z,97429.34
2023-12-22T09:38:50.641Z,97428.34
2023-12-22T09:41:17.753Z,97422.63
2023-12-22T09:43:49.745Z,97420.53
2023-12-22T09:46:19.146Z,97420.88
2023-12-22T09:48:47.012Z,97421.91
2023-12-22T09:51:15.494Z,97429.72
2023-12-22T09:53:44.035Z,97419.38
2023-12-22T09:56:11.813Z,97418.41
2023-12-22T09:58:41.799Z,97406.41
2023-12-22T10:01:10.148Z,97412.25
2023-12-22T10:03:38.870Z,97410.72
2023-12-22T10:06:06.382Z,97389.09
2023-12-22T10:08:34.094Z,97398.13
2023-12-22T10:11:01.294Z,97409.50
2023-12-22T10:13:29.498Z,97405.59
2023-12-22T10:15:57.367Z,97396.53
2023-12-22T10:18:25.549Z,97390.25
2023-12-22T10:20:52.676Z,97391.19
2023-12-22T10:23:19.668Z,97390.84
2023-12-22T10:25:48.663Z,97382.91
2023-12-22T10:28:16.187Z,97374.84
2023-12-22T10:30:43.842Z,97383.06
2023-12-22T10:33:10.866Z,97381.34
2023-12-22T10:35:38.060Z,97379.09
2023-12-22T10:38:05.825Z,97372.69
2023-12-22T10:40:32.891Z,97377.06
2023-12-22T10:43:01.823Z,97370.78
2023-12-22T10:45:32.102Z,97386.09
2023-12-22T10:48:00.945Z,97372.69
2023-12-22T10:50:29.345Z,97364.63
2023-12-22T10:52:56.487Z,97360.91
2023-12-22T10:55:24.181Z,97369.50
2023-12-22T10:57:51.797Z,97370.31
2023-12-22T11:00:21.612Z,97360.13
2023-12-22T11:02:50.506Z,97362.06
2023-12-22T11:05:20.859Z,97352.06
2023-12-22T11:07:51.809Z,97355.59
2023-12-22T11:10:22.631Z,97350.44
2023-12-22T11:12:51.313Z,97354.63
2023-12-22T11:15:20.775Z,97352.06
2023-12-22T11:17:53.936Z,97348.47
2023-12-22T11:20:24.389Z,97347.50
2023-12-22T11:22:53.475Z,97342.84
2023-12-22T11:25:27.842Z,97349.31
2023-12-22T11:27:56.965Z,97344.81
2023-12-22T11:30:32.686Z,97339.28
2023-12-22T11:33:05.676Z,97341.41
2023-12-22T11:35:33.844Z,97320.09
2023-12-22T11:38:04.244Z,97329.63
2023-12-22T11:40:31.509Z,97341.44
2023-12-22T11:43:00.889Z,97344.81
2023-12-22T11:45:32.099Z,97337.06
2023-12-22T11:48:07.574Z,97339.16
2023-12-22T11:50:34.748Z,97328.03
2023-12-22T11:53:23.329Z,97326.25
2023-12-22T11:56:02.860Z,97327.88
2023-12-22T11:58:44.466Z,97327.50
2023-12-22T12:01:13.255Z,97325.56
2023-12-22T12:03:48.970Z,97340.44
2023-12-22T12:06:19.904Z,97333.97
2023-12-22T12:08:47.130Z,97338.00
2023-12-22T12:11:14.714Z,97337.03
2023-12-22T12:13:48.294Z,97339.47
2023-12-22T12:16:17.570Z,97330.25
2023-12-22T12:18:46.002Z,97325.56
2023-12-22T12:21:13.173Z,97341.38
2023-12-22T12:23:42.442Z,97319.44
2023-12-22T12:26:10.373Z,97331.66
2023-12-22T12:28:38.195Z,97323.44
2023-12-22T12:31:07.548Z,97328.91
2023-12-22T12:33:36.714Z,97320.53
2023-12-22T12:36:05.780Z,97308.91
2023-12-22T12:39:09.782Z,97307.78
2023-12-22T12:41:47.467Z,97307.78
2023-12-22T12:44:16.205Z,97313.88
2023-12-22T12:46:43.589Z,97314.66
2023-12-22T12:49:13.154Z,97320.94
2023-12-22T12:51:41.776Z,97311.59
2023-12-22T12:54:10.011Z,97306.91
2023-12-22T12:56:42.342Z,97301.25
2023-12-22T12:59:13.920Z,97302.19
2023-12-22T13:01:47.046Z,97299.88
2023-12-22T13:04:15.204Z,97304.72
2023-12-22T13:06:45.580Z,97307.28
2023-12-22T13:09:14.855Z,97307.66
2023-12-22T13:11:45.275Z,97315.25
2023-12-22T13:14:12.443Z,97314.63
2023-12-22T13:16:41.053Z,97310.59
2023-12-22T13:19:08.713Z,97320.94
2023-12-22T13:21:36.115Z,97288.06
2023-12-22T13:24:13.894Z,97300.50
2023-12-22T13:26:41.793Z,97292.09
2023-12-22T13:29:10.049Z,97292.28
2023-12-22T13:31:47.059Z,97274.53
2023-12-22T13:34:15.313Z,97280.97
2023-12-22T13:36:45.476Z,97285.16
2023-12-22T13:39:15.463Z,97286.44
2023-12-22T13:41:47.235Z,97278.69
2023-12-22T13:44:15.512Z,97270.28
2023-12-22T13:46:44.032Z,97278.84
2023-12-22T13:49:12.088Z,97280.47
2023-12-22T13:51:46.150Z,97273.84
2023-12-22T13:54:13.483Z,97273.06
2023-12-22T13:56:45.292Z,97279.38
2023-12-22T13:59:13.069Z,97274.53
2023-12-22T14:01:41.624Z,97279.69
2023-12-22T14:04:11.616Z,97275.97
2023-12-22T14:06:39.621Z,97269.38
2023-12-22T14:09:06.580Z,97267.44
2023-12-22T14:11:33.732Z,97275.03
2023-12-22T14:14:01.081Z,97272.28
2023-12-22T14:16:28.152Z,97279.72
2023-12-22T14:18:56.606Z,97263.25
2023-12-22T14:21:23.727Z,97248.25
2023-12-22T14:23:51.765Z,97256.47
2023-12-22T14:26:18.767Z,97253.09
2023-12-22T14:28:48.499Z,97251.94
2023-12-22T14:31:15.745Z,97247.28
2023-12-22T14:33:42.794Z,97260.84
2023-12-22T14:36:10.121Z,97249.41
2023-12-22T14:38:37.146Z,97255.84
2023-12-22T14:41:04.691Z,97237.75
2023-12-22T14:43:31.770Z,97246.16
2023-12-22T14:45:58.935Z,97244.38
2023-12-22T14:48:26.033Z,97243.28
2023-12-22T14:50:53.190Z,97251.66
2023-12-22T14:53:21.044Z,97241.00
2023-12-22T14:55:48.202Z,97233.72
2023-12-22T14:58:16.191Z,97245.69
2023-12-22T15:00:43.373Z,97238.72
2023-12-22T15:03:10.645Z,97230.81
2023-12-22T15:05:38.173Z,97232.94
2023-12-22T15:08:08.561Z,97238.09
2023-12-22T15:10:36.372Z,97241.78
2023-12-22T15:13:03.483Z,97246.16
2023-12-22T15:15:30.561Z,97250.03
2023-12-22T15:17:57.678Z,97234.22
2023-12-22T15:20:24.738Z,97240.00
2023-12-22T15:22:52.313Z,97231.63
2023-12-22T15:25:22.568Z,97243.41
2023-12-22T15:27:49.866Z,97237.13
2023-12-22T15:30:17.104Z,97238.09
2023-12-22T15:32:44.162Z,97213.56
2023-12-22T15:35:11.851Z,97235.69
2023-12-22T15:37:39.324Z,97226.78
2023-12-22T15:40:06.926Z,97227.13
2023-12-22T15:42:33.964Z,97229.53
2023-12-22T15:45:02.097Z,97210.00
2023-12-22T15:47:31.777Z,97211.13
2023-12-22T15:49:59.014Z,97215.19
2023-12-22T15:52:26.077Z,97209.34
2023-12-22T15:54:53.409Z,97211.28
2023-12-22T15:57:20.417Z,97202.25
2023-12-22T15:59:47.529Z,97201.13
2023-12-22T16:02:14.982Z,97191.94
2023-12-22T16:04:43.771Z,97194.81
2023-12-22T16:07:10.799Z,97191.25
2023-12-22T16:09:37.858Z,97175.44
2023-12-22T16:12:05.510Z,97178.03
2023-12-22T16:14:39.091Z,97176.88
2023-12-22T16:17:06.429Z,97176.69
2023-12-22T16:19:33.625Z,97168.44
2023-12-22T16:22:00.754Z,97174.91
2023-12-22T16:24:29.118Z,97163.44
2023-12-22T16:26:56.163Z,97177.00
2023-12-22T16:29:23.142Z,97167.78
2023-12-22T16:31:51.021Z,97164.56
2023-12-22T16:34:18.130Z,97179.56
2023-12-22T16:36:48.205Z,97176.97
2023-12-22T16:39:15.615Z,97158.75
2023-12-22T16:41:46.170Z,97159.88
2023-12-22T16:44:13.193Z,97177.94
2023-12-22T16:46:40.207Z,97165.66
2023-12-22T16:49:08.462Z,97168.56
2023-12-22T16:51:36.604Z,97164.50
2023-12-22T16:54:04.058Z,97170.50
2023-12-22T16:56:31.236Z,97175.97
2023-12-22T16:58:58.457Z,97162.72
2023-12-22T17:01:38.961Z,97166.09
2023-12-22T17:04:10.221Z,97167.88
2023-12-22T17:06:48.136Z,97160.13
2023-12-22T17:09:15.822Z,97157.66
2023-12-22T17:11:43.014Z,97148.94
2023-12-22T17:14:10.560Z,97155.53
2023-12-22T17:16:38.460Z,97152.97
2023-12-22T17:19:05.530Z,97158.63
2023-12-22T17:21:32.783Z,97155.38
2023-12-22T17:23:59.822Z,97150.53
2023-12-22T17:26:26.829Z,97147.00
2023-12-22T17:28:54.023Z,97151.03
2023-12-22T17:31:21.067Z,97149.06
2023-12-22T17:33:48.334Z,97152.63
2023-12-22T17:36:15.548Z,97148.28
2023-12-22T17:38:42.514Z,97143.28
2023-12-22T17:41:09.693Z,97137.59
2023-12-22T17:43:36.773Z,97134.84
2023-12-22T17:46:04.321Z,97135.97
2023-12-22T17:48:31.484Z,97130.34
2023-12-22T17:50:58.681Z,97123.69
2023-12-22T17:53:27.169Z,97119.78
2023-12-22T17:55:54.412Z,97119.00
2023-12-22T17:58:21.576Z,97114.78
2023-12-22T18:00:48.949Z,97118.34
2023-12-22T18:03:16.038Z,97106.22
2023-12-22T18:05:44.013Z,97104.28
2023-12-22T18:08:11.603Z,97111.56
2023-12-22T18:10:41.243Z,97099.91
2023-12-22T18:13:08.587Z,97106.69
2023-12-22T18:15:35.652Z,97091.97
2023-12-22T18:18:05.984Z,97091.63
2023-12-22T18:20:34.793Z,97074.63
2023-12-22T18:23:01.945Z,97085.31
2023-12-22T18:25:29.686Z,97080.16
2023-12-22T18:27:56.685Z,97083.34
2023-12-22T18:30:23.694Z,97073.19
2023-12-22T18:32:50.829Z,97061.75
2023-12-22T18:35:18.144Z,97050.59
2023-12-22T18:37:45.159Z,97063.69
2023-12-22T18:40:12.900Z,97055.75
2023-12-22T18:42:40.038Z,97056.88
2023-12-22T18:45:07.427Z,97055.69
2023-12-22T18:47:34.500Z,97042.50
2023-12-22T18:50:01.612Z,97047.19
2023-12-22T18:52:32.718Z,97034.91
2023-12-22T18:54:59.769Z,97041.69
2023-12-22T18:57:26.788Z,97040.41
2023-12-22T18:59:57.100Z,97038.81
2023-12-22T19:02:38.609Z,97040.47
2023-12-22T19:05:11.455Z,97032.78
2023-12-22T19:07:38.935Z,97033.56
2023-12-22T19:10:06.287Z,97032.81
2023-12-22T19:12:34.139Z,97037.69
2023-12-22T19:15:01.396Z,97036.09
2023-12-22T19:17:29.464Z,97037.91
2023-12-22T19:19:56.510Z,97023.41
2023-12-22T19:22:25.206Z,97032.72
2023-12-22T19:24:55.490Z,97031.94
2023-12-22T19:27:22.883Z,97040.31
2023-12-22T19:29:50.159Z,97036.44
2023-12-22T19:32:17.583Z,97033.19
2023-12-22T19:34:49.204Z,97027.72
2023-12-22T19:37:21.029Z,97021.72
2023-12-22T19:39:48.082Z,97028.50
2023-12-22T19:42:15.915Z,97022.22
2023-12-22T19:44:43.085Z,97024.81
2023-12-22T19:47:10.202Z,97023.69
2023-12-22T19:49:37.628Z,97015.75
2023-12-22T19:52:04.921Z,97009.31
2023-12-22T19:54:31.932Z,97005.09
2023-12-22T19:56:59.038Z,97004.13
2023-12-22T19:59:26.074Z,97000.25
2023-12-22T20:01:53.600Z,96993.75
2023-12-22T20:04:21.577Z,97002.00
2023-12-22T20:06:48.647Z,96998.28
2023-12-22T20:09:16.855Z,96996.97
2023-12-22T20:11:45.229Z,97004.06
2023-12-22T20:14:12.518Z,96997.25
2023-12-22T20:16:39.673Z,96991.81
2023-12-22T20:19:06.837Z,96999.22
2023-12-22T20:21:33.947Z,96993.22
2023-12-22T20:24:01.129Z,96983.72
2023-12-22T20:26:29.100Z,96980.63
2023-12-22T20:28:56.117Z,96979.44
2023-12-22T20:31:23.336Z,96982.03
2023-12-22T20:33:53.455Z,96978.31
2023-12-22T20:36:21.283Z,96988.81
2023-12-22T20:38:48.461Z,96981.41
2023-12-22T20:41:15.597Z,96986.41
2023-12-22T20:43:42.889Z,96982.66
2023-12-22T20:46:09.989Z,96989.78
2023-12-22T20:48:37.339Z,96973.38
2023-12-22T20:51:05.326Z,96975.63
2023-12-22T20:53:32.468Z,96977.13
2023-12-22T20:55:59.783Z,96980.38
2023-12-22T20:58:27.263Z,96985.06
2023-12-22T21:00:54.419Z,96975.56
2023-12-22T21:03:21.619Z,96985.91
2023-12-22T21:05:49.226Z,96978.47
2023-12-22T21:08:16.769Z,96975.56
2023-12-22T21:10:45.131Z,96958.69
2023-12-22T21:13:12.335Z,96947.13
2023-12-22T21:15:39.502Z,96955.16
2023-12-22T21:18:06.659Z,96947.22
2023-12-22T21:20:33.795Z,96949.97
2023-12-22T21:23:02.148Z,96948.66
2023-12-22T21:25:30.401Z,96947.84
2023-12-22T21:27:57.434Z,96950.94
2023-12-22T21:30:24.522Z,96947.72
2023-12-22T21:32:51.590Z,96955.75
2023-12-22T21:35:19.004Z,96954.53
2023-12-22T21:37:47.690Z,96949.63
2023-12-22T21:40:15.056Z,96929.69
2023-12-22T21:42:42.110Z,96941.06
2023-12-22T21:45:09.855Z,96936.69
2023-12-22T21:47:38.893Z,96931.88
2023-12-22T21:50:06.688Z,96936.69
2023-12-22T21:52:33.814Z,96931.69
2023-12-22T21:55:01.137Z,96936.06
2023-12-22T21:57:30.941Z,96933.94
2023-12-22T21:59:57.966Z,96930.03
2023-12-22T22:02:24.998Z,96935.38
2023-12-22T22:04:52.228Z,96926.00
2023-12-22T22:07:19.194Z,96929.22
2023-12-22T22:09:46.688Z,96925.66
2023-12-22T22:12:13.652Z,96927.47
2023-12-22T22:14:40.796Z,96930.84
2023-12-22T22:17:07.833Z,96920.13
2023-12-22T22:19:35.107Z,96918.97
2023-12-22T22:22:02.558Z,96907.66
2023-12-22T22:24:29.614Z,96912.38
2023-12-22T22:26:56.564Z,96910.41
2023-12-22T22:29:23.605Z,96908.63
2023-12-22T22:31:50.660Z,96910.06
2023-12-22T22:34:17.647Z,96904.28
2023-12-22T22:36:44.805Z,96906.69
2023-12-22T22:39:11.854Z,96900.34
2023-12-22T22:41:40.117Z,96897.75
2023-12-22T22:44:07.138Z,96900.00
2023-12-22T22:46:34.402Z,96904.38
2023-12-22T22:49:01.579Z,96905.06
2023-12-22T22:51:28.772Z,96909.09
2023-12-22T22:53:55.906Z,96908.75
2023-12-22T22:56:23.048Z,96913.09
2023-12-22T22:58:50.241Z,96904.09
2023-12-22T23:01:17.412Z,96908.28
2023-12-22T23:03:44.806Z,96906.16
2023-12-22T23:06:12.047Z,96896.78
2023-12-22T23:08:39.376Z,96906.03
2023-12-22T23:11:06.422Z,96899.91
2023-12-22T23:13:33.466Z,96897.47
2023-12-22T23:16:00.647Z,96894.28
2023-12-22T23:18:27.641Z,96891.97
2023-12-22T23:20:54.791Z,96892.41
2023-12-22T23:23:21.822Z,96881.63
2023-12-22T23:25:49.897Z,96875.81
2023-12-22T23:28:17.191Z,96883.22
2023-12-22T23:30:44.517Z,96878.06
2023-12-22T23:33:11.560Z,96874.22
2023-12-22T23:35:38.821Z,96876.44
2023-12-22T23:38:05.958Z,96864.78
2023-12-22T23:40:32.941Z,96866.19
2023-12-22T23:42:59.976Z,96867.38
2023-12-22T23:45:26.997Z,96864.78
2023-12-22T23:47:54.577Z,96863.44
2023-12-22T23:50:21.776Z,96866.00
2023-12-22T23:52:48.947Z,96877.34
2023-12-22T23:55:16.312Z,96849.97
2023-12-22T23:57:43.330Z,96878.16
